createdAt,value
2022-09-28T00:01:42.291Z,9.15
2022-09-28T00:07:44.213Z,6.10
2022-09-28T00:13:52.685Z,8.93
2022-09-28T00:19:56.770Z,6.97
2022-09-28T00:26:03.623Z,10.80
2022-09-28T00:32:15.599Z,7.85
2022-09-28T00:38:17.521Z,6.88
2022-09-28T00:44:40.260Z,8.68
2022-09-28T00:50:45.169Z,7.13
2022-09-28T00:56:48.205Z,9.10
2022-09-28T01:02:50.736Z,11.13
2022-09-28T01:08:55.272Z,10.52
2022-09-28T01:15:04.489Z,9.40
2022-09-28T01:21:20.207Z,13.63
2022-09-28T01:27:59.527Z,9.98
2022-09-28T01:34:16.178Z,7.82
2022-09-28T01:40:21.015Z,8.85
2022-09-28T01:46:28.701Z,9.32
2022-09-28T01:52:59.479Z,12.48
2022-09-28T01:59:19.950Z,7.93
2022-09-28T02:05:31.201Z,8.38
2022-09-28T02:11:37.762Z,8.27
2022-09-28T02:17:41.222Z,10.90
2022-09-28T02:23:57.247Z,6.97
2022-09-28T02:29:59.782Z,10.50
2022-09-28T02:36:03.855Z,15.45
2022-09-28T02:42:25.752Z,10.27
2022-09-28T02:49:10.526Z,12.52
2022-09-28T02:55:41.978Z,10.68
2022-09-28T03:02:01.518Z,10.70
2022-09-28T03:08:09.442Z,9.45
2022-09-28T03:14:12.308Z,10.45
2022-09-28T03:20:21.615Z,12.48
2022-09-28T03:26:23.608Z,11.90
2022-09-28T03:32:25.493Z,11.27
2022-09-28T03:38:27.608Z,9.60
2022-09-28T03:44:29.695Z,11.77
2022-09-28T03:50:31.649Z,10.43
2022-09-28T03:56:33.670Z,9.38
2022-09-28T04:02:35.756Z,11.18
2022-09-28T04:08:38.411Z,12.20
2022-09-28T04:14:40.414Z,11.77
2022-09-28T04:20:45.405Z,10.50
2022-09-28T04:26:49.483Z,11.18
2022-09-28T04:32:52.613Z,11.95
2022-09-28T04:38:54.835Z,13.10
2022-09-28T04:45:00.993Z,15.82
2022-09-28T04:51:03.679Z,12.80
2022-09-28T04:57:06.190Z,17.60
2022-09-28T05:03:08.198Z,16.85
2022-09-28T05:09:39.442Z,15.63
2022-09-28T05:15:42.076Z,15.18
2022-09-28T05:21:48.787Z,15.98
2022-09-28T05:27:57.092Z,13.60
2022-09-28T05:34:12.308Z,17.50
2022-09-28T05:40:14.951Z,16.52
2022-09-28T05:46:22.051Z,16.27
2022-09-28T05:52:24.242Z,15.30
2022-09-28T05:58:26.265Z,16.35
2022-09-28T06:04:29.402Z,15.35
2022-09-28T06:10:32.095Z,16.55
2022-09-28T06:16:38.250Z,11.05
2022-09-28T06:22:44.037Z,10.20
2022-09-28T06:28:46.324Z,5.95
2022-09-28T06:34:50.700Z,6.70
2022-09-28T06:40:54.725Z,6.70
2022-09-28T06:46:57.078Z,8.73
2022-09-28T06:53:25.229Z,7.60
2022-09-28T06:59:54.927Z,7.45
2022-09-28T07:05:57.274Z,8.63
2022-09-28T07:12:18.421Z,6.85
2022-09-28T07:18:38.384Z,9.43
2022-09-28T07:24:41.490Z,9.85
2022-09-28T07:31:03.624Z,10.65
2022-09-28T07:37:28.256Z,11.75
2022-09-28T07:43:30.305Z,12.20
2022-09-28T07:49:32.811Z,8.13
2022-09-28T07:56:02.091Z,8.55
2022-09-28T08:02:24.540Z,7.43
2022-09-28T08:08:27.509Z,9.40
2022-09-28T08:14:32.236Z,10.90
2022-09-28T08:21:03.020Z,12.65
2022-09-28T08:27:05.227Z,13.25
2022-09-28T08:33:08.250Z,9.80
2022-09-28T08:39:30.387Z,10.93
2022-09-28T08:45:52.590Z,12.38
2022-09-28T08:52:30.516Z,9.73
2022-09-28T08:58:45.536Z,10.23
2022-09-28T09:04:47.691Z,11.35
2022-09-28T09:11:10.638Z,10.63
2022-09-28T09:17:25.050Z,10.10
2022-09-28T09:23:43.274Z,10.00
2022-09-28T09:30:26.210Z,8.38
2022-09-28T09:36:34.213Z,7.80
2022-09-28T09:43:14.265Z,9.75
2022-09-28T09:49:45.871Z,8.73
2022-09-28T09:55:57.478Z,6.93
2022-09-28T10:02:30.396Z,13.35
2022-09-28T10:09:06.784Z,6.68
2022-09-28T10:15:35.486Z,7.85
2022-09-28T10:21:58.570Z,5.82
2022-09-28T10:28:06.421Z,7.93
2022-09-28T10:34:14.017Z,7.20
2022-09-28T10:40:30.609Z,6.43
2022-09-28T10:46:35.010Z,7.38
2022-09-28T10:52:46.535Z,7.78
2022-09-28T10:59:29.665Z,8.27
2022-09-28T11:06:08.807Z,8.73
2022-09-28T11:12:17.223Z,8.55
2022-09-28T11:18:33.715Z,7.38
2022-09-28T11:24:39.902Z,8.43
2022-09-28T11:30:51.988Z,8.73
2022-09-28T11:37:50.149Z,5.20
2022-09-28T11:44:31.018Z,3.42
2022-09-28T11:50:54.057Z,3.95
2022-09-28T11:56:59.934Z,4.53
2022-09-28T12:03:06.140Z,3.08
2022-09-28T12:09:41.886Z,2.97
2022-09-28T12:16:23.013Z,3.67
2022-09-28T12:22:35.618Z,1.60
2022-09-28T12:28:49.051Z,2.60
2022-09-28T12:34:50.908Z,2.60
2022-09-28T12:41:19.838Z,3.72
2022-09-28T12:47:36.937Z,2.45
2022-09-28T12:53:41.725Z,2.75
2022-09-28T13:00:02.240Z,3.85
2022-09-28T13:06:23.359Z,4.93
2022-09-28T13:12:42.265Z,4.65
2022-09-28T13:18:57.312Z,2.45
2022-09-28T13:25:05.975Z,4.43
2022-09-28T13:31:09.653Z,6.57
2022-09-28T13:37:16.824Z,7.22
2022-09-28T13:43:33.095Z,8.30
2022-09-28T13:49:49.932Z,4.25
2022-09-28T13:56:03.677Z,4.82
2022-09-28T14:02:33.815Z,6.03
2022-09-28T14:08:52.214Z,4.32
2022-09-28T14:14:54.221Z,4.65
2022-09-28T14:21:30.129Z,1.10
2022-09-28T14:27:41.832Z,1.42
2022-09-28T14:33:57.011Z,0.80
2022-09-28T14:40:17.252Z,1.45
2022-09-28T14:46:19.346Z,2.05
2022-09-28T14:52:43.497Z,5.40
2022-09-28T14:58:47.791Z,4.32
2022-09-28T15:04:54.728Z,4.80
2022-09-28T15:10:58.742Z,4.57
2022-09-28T15:17:08.625Z,5.53
2022-09-28T15:23:37.208Z,3.70
2022-09-28T15:29:41.036Z,5.18
2022-09-28T15:35:45.764Z,4.47
2022-09-28T15:41:50.305Z,4.22
2022-09-28T15:47:57.668Z,9.50
2022-09-28T15:54:12.982Z,4.10
2022-09-28T16:00:21.044Z,3.97
2022-09-28T16:06:24.352Z,5.22
2022-09-28T16:12:36.305Z,5.30
2022-09-28T16:18:40.511Z,6.32
2022-09-28T16:24:42.602Z,7.15
2022-09-28T16:31:04.769Z,6.55
2022-09-28T16:37:42.634Z,5.55
2022-09-28T16:43:45.788Z,4.97
2022-09-28T16:49:48.631Z,5.97
2022-09-28T16:55:50.952Z,6.82
2022-09-28T17:01:53.169Z,6.68
2022-09-28T17:08:03.823Z,9.20
2022-09-28T17:14:06.042Z,9.55
2022-09-28T17:20:27.477Z,5.30
2022-09-28T17:26:34.615Z,5.85
2022-09-28T17:32:37.221Z,7.53
2022-09-28T17:38:39.239Z,4.15
2022-09-28T17:44:41.094Z,5.07
2022-09-28T17:50:46.615Z,6.55
2022-09-28T17:56:48.579Z,7.80
2022-09-28T18:02:51.355Z,13.63
2022-09-28T18:08:53.289Z,10.73
2022-09-28T18:14:55.239Z,9.60
2022-09-28T18:20:57.157Z,10.38
2022-09-28T18:26:59.196Z,8.15
2022-09-28T18:33:01.336Z,7.65
2022-09-28T18:39:28.459Z,6.53
2022-09-28T18:45:30.362Z,35.75
2022-09-28T18:51:33.763Z,17.83
2022-09-28T18:57:36.031Z,11.20
2022-09-28T19:03:38.048Z,15.07
2022-09-28T19:09:43.976Z,7.75
2022-09-28T19:15:48.388Z,8.35
2022-09-28T19:21:50.841Z,6.65
2022-09-28T19:27:53.248Z,4.00
2022-09-28T19:33:55.309Z,4.72
2022-09-28T19:40:05.909Z,6.85
2022-09-28T19:46:15.836Z,5.75
2022-09-28T19:52:20.617Z,8.70
2022-09-28T19:58:37.187Z,8.20
2022-09-28T20:04:41.828Z,8.82
2022-09-28T20:10:52.321Z,7.50
2022-09-28T20:16:54.180Z,8.52
2022-09-28T20:22:56.277Z,10.10
2022-09-28T20:28:58.360Z,9.13
2022-09-28T20:35:00.316Z,6.43
2022-09-28T20:41:02.860Z,8.68
2022-09-28T20:47:04.809Z,7.50
2022-09-28T20:53:06.702Z,6.95
2022-09-28T20:59:11.671Z,5.53
2022-09-28T21:05:13.601Z,7.53
2022-09-28T21:11:18.063Z,10.80
2022-09-28T21:23:37.340Z,6.07
2022-09-28T21:35:55.702Z,12.55
2022-09-28T21:41:57.621Z,9.73
2022-09-28T21:47:59.537Z,9.95
2022-09-28T21:54:01.478Z,11.25
2022-09-28T22:00:04.026Z,12.02
2022-09-28T22:06:07.446Z,11.25
2022-09-28T22:12:09.537Z,13.45
2022-09-28T22:18:11.567Z,19.45
2022-09-28T22:24:13.662Z,17.02
2022-09-28T22:30:15.761Z,13.55
2022-09-28T22:36:17.726Z,13.65
2022-09-28T22:42:20.655Z,13.77
2022-09-28T22:48:23.541Z,15.35
2022-09-28T22:54:25.480Z,14.88
2022-09-28T23:00:28.539Z,14.68
2022-09-28T23:06:30.961Z,16.88
2022-09-28T23:12:35.665Z,14.30
2022-09-28T23:18:40.966Z,16.15
2022-09-28T23:24:42.882Z,20.05
2022-09-28T23:30:44.756Z,19.13
2022-09-28T23:36:46.636Z,18.65
2022-09-28T23:42:48.573Z,22.42
2022-09-28T23:48:50.573Z,23.60
2022-09-28T23:54:52.438Z,21.80
